sensor_id;sensor_type;location;lat;lon;timestamp;P1;durP1;ratioP1;P2;durP2;ratioP2
42846;SDS011;28495;49.916;14.536;2023-03-01T00:03:50;19.23;;;9.77;;
42846;SDS011;28495;49.916;14.536;2023-03-01T00:09:12;17.60;;;9.85;;
42846;SDS011;28495;49.916;14.536;2023-03-01T00:14:35;17.83;;;10.10;;
42846;SDS011;28495;49.916;14.536;2023-03-01T00:19:56;20.63;;;11.13;;
42846;SDS011;28495;49.916;14.536;2023-03-01T00:25:17;23.17;;;13.10;;
42846;SDS011;28495;49.916;14.536;2023-03-01T00:30:38;27.92;;;12.90;;
42846;SDS011;28495;49.916;14.536;2023-03-01T00:35:59;24.55;;;12.95;;
42846;SDS011;28495;49.916;14.536;2023-03-01T00:41:20;24.63;;;12.45;;
42846;SDS011;28495;49.916;14.536;2023-03-01T00:46:47;24.48;;;12.57;;
42846;SDS011;28495;49.916;14.536;2023-03-01T00:52:07;23.35;;;12.50;;
42846;SDS011;28495;49.916;14.536;2023-03-01T00:57:28;26.40;;;14.27;;
42846;SDS011;28495;49.916;14.536;2023-03-01T01:02:49;23.42;;;14.00;;
42846;SDS011;28495;49.916;14.536;2023-03-01T01:08:10;33.85;;;16.90;;
42846;SDS011;28495;49.916;14.536;2023-03-01T01:13:31;29.85;;;15.35;;
42846;SDS011;28495;49.916;14.536;2023-03-01T01:18:52;26.65;;;14.30;;
42846;SDS011;28495;49.916;14.536;2023-03-01T01:24:14;21.98;;;12.95;;
42846;SDS011;28495;49.916;14.536;2023-03-01T01:29:36;28.60;;;14.20;;
42846;SDS011;28495;49.916;14.536;2023-03-01T01:34:58;28.65;;;14.07;;
42846;SDS011;28495;49.916;14.536;2023-03-01T01:40:19;25.05;;;13.35;;
42846;SDS011;28495;49.916;14.536;2023-03-01T01:45:40;21.65;;;12.57;;
42846;SDS011;28495;49.916;14.536;2023-03-01T01:51:02;24.23;;;11.93;;
42846;SDS011;28495;49.916;14.536;2023-03-01T01:56:23;22.33;;;12.18;;
42846;SDS011;28495;49.916;14.536;2023-03-01T02:01:47;22.48;;;11.00;;
42846;SDS011;28495;49.916;14.536;2023-03-01T02:07:14;22.60;;;13.20;;
42846;SDS011;28495;49.916;14.536;2023-03-01T02:12:36;23.55;;;12.90;;
42846;SDS011;28495;49.916;14.536;2023-03-01T02:18:00;24.50;;;11.95;;
42846;SDS011;28495;49.916;14.536;2023-03-01T02:23:22;19.80;;;10.80;;
42846;SDS011;28495;49.916;14.536;2023-03-01T02:28:43;20.58;;;11.25;;
42846;SDS011;28495;49.916;14.536;2023-03-01T02:34:05;21.67;;;11.20;;
42846;SDS011;28495;49.916;14.536;2023-03-01T02:39:28;20.65;;;11.10;;
42846;SDS011;28495;49.916;14.536;2023-03-01T02:44:53;23.50;;;11.40;;
42846;SDS011;28495;49.916;14.536;2023-03-01T02:56:16;21.33;;;12.48;;
42846;SDS011;28495;49.916;14.536;2023-03-01T03:01:38;19.02;;;11.20;;
42846;SDS011;28495;49.916;14.536;2023-03-01T03:07:00;20.83;;;10.30;;
42846;SDS011;28495;49.916;14.536;2023-03-01T03:12:21;19.08;;;10.27;;
42846;SDS011;28495;49.916;14.536;2023-03-01T03:17:42;22.00;;;10.77;;
42846;SDS011;28495;49.916;14.536;2023-03-01T03:23:05;21.83;;;11.25;;
42846;SDS011;28495;49.916;14.536;2023-03-01T03:28:27;21.40;;;10.50;;
42846;SDS011;28495;49.916;14.536;2023-03-01T03:33:47;18.52;;;9.80;;
42846;SDS011;28495;49.916;14.536;2023-03-01T03:39:09;16.58;;;9.80;;
42846;SDS011;28495;49.916;14.536;2023-03-01T03:44:29;19.65;;;10.23;;
42846;SDS011;28495;49.916;14.536;2023-03-01T03:49:50;15.15;;;9.05;;
42846;SDS011;28495;49.916;14.536;2023-03-01T03:55:11;16.92;;;9.95;;
42846;SDS011;28495;49.916;14.536;2023-03-01T04:00:37;18.05;;;10.60;;
42846;SDS011;28495;49.916;14.536;2023-03-01T04:06:00;14.55;;;9.25;;
42846;SDS011;28495;49.916;14.536;2023-03-01T04:11:21;20.10;;;9.82;;
42846;SDS011;28495;49.916;14.536;2023-03-01T04:16:49;16.60;;;8.98;;
42846;SDS011;28495;49.916;14.536;2023-03-01T04:22:10;17.67;;;10.18;;
42846;SDS011;28495;49.916;14.536;2023-03-01T04:27:35;21.13;;;9.80;;
42846;SDS011;28495;49.916;14.536;2023-03-01T04:32:57;22.20;;;11.38;;
42846;SDS011;28495;49.916;14.536;2023-03-01T04:38:18;19.50;;;11.07;;
42846;SDS011;28495;49.916;14.536;2023-03-01T04:43:39;22.48;;;12.35;;
42846;SDS011;28495;49.916;14.536;2023-03-01T04:49:01;20.45;;;11.98;;
42846;SDS011;28495;49.916;14.536;2023-03-01T04:54:23;20.08;;;12.10;;
42846;SDS011;28495;49.916;14.536;2023-03-01T04:59:44;21.38;;;11.85;;
42846;SDS011;28495;49.916;14.536;2023-03-01T05:05:05;21.50;;;11.07;;
42846;SDS011;28495;49.916;14.536;2023-03-01T05:10:27;17.65;;;10.07;;
42846;SDS011;28495;49.916;14.536;2023-03-01T05:15:56;24.15;;;14.07;;
42846;SDS011;28495;49.916;14.536;2023-03-01T05:21:18;19.85;;;11.93;;
42846;SDS011;28495;49.916;14.536;2023-03-01T05:26:39;19.58;;;11.30;;
42846;SDS011;28495;49.916;14.536;2023-03-01T05:32:02;21.02;;;11.43;;
42846;SDS011;28495;49.916;14.536;2023-03-01T05:37:23;20.63;;;11.50;;
42846;SDS011;28495;49.916;14.536;2023-03-01T05:42:44;22.63;;;12.00;;
42846;SDS011;28495;49.916;14.536;2023-03-01T05:48:07;23.77;;;12.73;;
42846;SDS011;28495;49.916;14.536;2023-03-01T05:53:28;21.23;;;12.20;;
42846;SDS011;28495;49.916;14.536;2023-03-01T05:58:50;23.20;;;11.70;;
42846;SDS011;28495;49.916;14.536;2023-03-01T06:04:11;20.67;;;12.05;;
42846;SDS011;28495;49.916;14.536;2023-03-01T06:09:32;18.58;;;11.35;;
42846;SDS011;28495;49.916;14.536;2023-03-01T06:14:53;42.67;;;19.58;;
42846;SDS011;28495;49.916;14.536;2023-03-01T06:20:18;27.85;;;14.85;;
42846;SDS011;28495;49.916;14.536;2023-03-01T06:25:41;26.40;;;12.38;;
42846;SDS011;28495;49.916;14.536;2023-03-01T06:31:02;29.17;;;15.07;;
42846;SDS011;28495;49.916;14.536;2023-03-01T06:36:23;22.25;;;11.55;;
42846;SDS011;28495;49.916;14.536;2023-03-01T06:41:44;28.67;;;12.82;;
42846;SDS011;28495;49.916;14.536;2023-03-01T06:47:05;19.35;;;10.68;;
42846;SDS011;28495;49.916;14.536;2023-03-01T06:52:26;19.52;;;11.50;;
42846;SDS011;28495;49.916;14.536;2023-03-01T06:57:47;23.52;;;12.23;;
42846;SDS011;28495;49.916;14.536;2023-03-01T07:03:08;36.22;;;19.20;;
42846;SDS011;28495;49.916;14.536;2023-03-01T07:08:29;23.48;;;11.77;;
42846;SDS011;28495;49.916;14.536;2023-03-01T07:13:50;21.08;;;11.05;;
42846;SDS011;28495;49.916;14.536;2023-03-01T07:19:10;27.45;;;11.73;;
42846;SDS011;28495;49.916;14.536;2023-03-01T07:24:31;19.95;;;10.90;;
42846;SDS011;28495;49.916;14.536;2023-03-01T07:29:52;20.45;;;10.38;;
42846;SDS011;28495;49.916;14.536;2023-03-01T07:35:13;16.52;;;8.52;;
42846;SDS011;28495;49.916;14.536;2023-03-01T07:40:35;20.00;;;9.77;;
42846;SDS011;28495;49.916;14.536;2023-03-01T07:45:59;14.82;;;8.15;;
42846;SDS011;28495;49.916;14.536;2023-03-01T07:51:21;20.48;;;9.57;;
42846;SDS011;28495;49.916;14.536;2023-03-01T07:56:42;19.30;;;11.38;;
42846;SDS011;28495;49.916;14.536;2023-03-01T08:02:03;24.25;;;12.38;;
42846;SDS011;28495;49.916;14.536;2023-03-01T08:07:24;17.35;;;11.00;;
42846;SDS011;28495;49.916;14.536;2023-03-01T08:12:45;31.02;;;15.98;;
42846;SDS011;28495;49.916;14.536;2023-03-01T08:18:06;27.83;;;14.43;;
42846;SDS011;28495;49.916;14.536;2023-03-01T08:23:26;28.33;;;14.38;;
42846;SDS011;28495;49.916;14.536;2023-03-01T08:28:48;32.72;;;15.40;;
42846;SDS011;28495;49.916;14.536;2023-03-01T08:34:11;23.73;;;12.02;;
42846;SDS011;28495;49.916;14.536;2023-03-01T08:39:34;28.95;;;13.10;;
42846;SDS011;28495;49.916;14.536;2023-03-01T08:44:55;21.98;;;12.38;;
42846;SDS011;28495;49.916;14.536;2023-03-01T08:50:17;19.15;;;10.07;;
42846;SDS011;28495;49.916;14.536;2023-03-01T08:55:37;26.13;;;12.85;;
42846;SDS011;28495;49.916;14.536;2023-03-01T09:00:58;18.10;;;10.98;;
42846;SDS011;28495;49.916;14.536;2023-03-01T09:06:20;19.30;;;9.05;;
42846;SDS011;28495;49.916;14.536;2023-03-01T09:11:41;18.13;;;9.02;;
42846;SDS011;28495;49.916;14.536;2023-03-01T09:17:04;19.52;;;9.82;;
42846;SDS011;28495;49.916;14.536;2023-03-01T09:22:25;19.13;;;10.60;;
42846;SDS011;28495;49.916;14.536;2023-03-01T09:27:46;19.42;;;10.48;;
42846;SDS011;28495;49.916;14.536;2023-03-01T09:33:06;18.70;;;10.05;;
42846;SDS011;28495;49.916;14.536;2023-03-01T09:38:27;15.45;;;9.20;;
42846;SDS011;28495;49.916;14.536;2023-03-01T10:07:17;19.00;;;8.77;;
42846;SDS011;28495;49.916;14.536;2023-03-01T10:12:59;16.75;;;8.48;;
42846;SDS011;28495;49.916;14.536;2023-03-01T10:18:26;20.92;;;11.27;;
42846;SDS011;28495;49.916;14.536;2023-03-01T10:23:50;13.93;;;8.85;;
42846;SDS011;28495;49.916;14.536;2023-03-01T10:29:13;19.35;;;9.48;;
42846;SDS011;28495;49.916;14.536;2023-03-01T10:34:35;15.98;;;8.20;;
42846;SDS011;28495;49.916;14.536;2023-03-01T10:40:09;18.70;;;9.75;;
42846;SDS011;28495;49.916;14.536;2023-03-01T10:45:33;16.58;;;9.77;;
42846;SDS011;28495;49.916;14.536;2023-03-01T10:56:18;17.90;;;9.77;;
42846;SDS011;28495;49.916;14.536;2023-03-01T11:01:40;18.15;;;10.35;;
42846;SDS011;28495;49.916;14.536;2023-03-01T11:07:02;17.33;;;10.18;;
42846;SDS011;28495;49.916;14.536;2023-03-01T11:12:23;15.70;;;9.40;;
42846;SDS011;28495;49.916;14.536;2023-03-01T11:17:44;20.02;;;10.98;;
42846;SDS011;28495;49.916;14.536;2023-03-01T11:23:16;16.02;;;9.43;;
42846;SDS011;28495;49.916;14.536;2023-03-01T11:28:39;18.35;;;9.65;;
42846;SDS011;28495;49.916;14.536;2023-03-01T11:34:05;19.20;;;9.20;;
42846;SDS011;28495;49.916;14.536;2023-03-01T11:39:37;16.70;;;8.95;;
42846;SDS011;28495;49.916;14.536;2023-03-01T11:45:06;17.27;;;10.00;;
42846;SDS011;28495;49.916;14.536;2023-03-01T11:50:35;14.93;;;10.32;;
42846;SDS011;28495;49.916;14.536;2023-03-01T11:56:15;19.50;;;9.73;;
42846;SDS011;28495;49.916;14.536;2023-03-01T12:07:53;22.85;;;12.80;;
42846;SDS011;28495;49.916;14.536;2023-03-01T12:13:35;21.10;;;11.50;;
42846;SDS011;28495;49.916;14.536;2023-03-01T12:42:03;22.27;;;11.88;;
42846;SDS011;28495;49.916;14.536;2023-03-01T12:47:47;25.52;;;13.85;;
42846;SDS011;28495;49.916;14.536;2023-03-01T13:10:52;28.08;;;12.40;;
42846;SDS011;28495;49.916;14.536;2023-03-01T13:16:21;20.75;;;12.40;;
42846;SDS011;28495;49.916;14.536;2023-03-01T13:21:59;20.75;;;11.77;;
42846;SDS011;28495;49.916;14.536;2023-03-01T13:27:22;23.48;;;12.93;;
42846;SDS011;28495;49.916;14.536;2023-03-01T13:32:49;28.05;;;12.70;;
42846;SDS011;28495;49.916;14.536;2023-03-01T13:44:50;19.88;;;11.32;;
42846;SDS011;28495;49.916;14.536;2023-03-01T13:50:00;23.23;;;12.18;;
42846;SDS011;28495;49.916;14.536;2023-03-01T14:01:06;20.65;;;10.27;;
42846;SDS011;28495;49.916;14.536;2023-03-01T14:06:40;21.30;;;11.48;;
42846;SDS011;28495;49.916;14.536;2023-03-01T14:23:19;20.30;;;9.80;;
42846;SDS011;28495;49.916;14.536;2023-03-01T14:28:42;17.30;;;9.48;;
42846;SDS011;28495;49.916;14.536;2023-03-01T14:34:03;17.25;;;9.02;;
42846;SDS011;28495;49.916;14.536;2023-03-01T14:39:25;19.33;;;9.70;;
42846;SDS011;28495;49.916;14.536;2023-03-01T14:44:47;14.27;;;7.63;;
42846;SDS011;28495;49.916;14.536;2023-03-01T14:55:50;19.73;;;10.77;;
42846;SDS011;28495;49.916;14.536;2023-03-01T15:01:15;17.40;;;9.10;;
42846;SDS011;28495;49.916;14.536;2023-03-01T15:06:37;22.73;;;11.43;;
42846;SDS011;28495;49.916;14.536;2023-03-01T15:11:58;15.68;;;9.35;;
42846;SDS011;28495;49.916;14.536;2023-03-01T15:17:26;18.73;;;10.15;;
42846;SDS011;28495;49.916;14.536;2023-03-01T15:22:59;18.33;;;9.17;;
42846;SDS011;28495;49.916;14.536;2023-03-01T15:28:28;17.17;;;9.70;;
42846;SDS011;28495;49.916;14.536;2023-03-01T15:33:53;17.98;;;10.00;;
42846;SDS011;28495;49.916;14.536;2023-03-01T15:39:42;23.88;;;11.88;;
42846;SDS011;28495;49.916;14.536;2023-03-01T15:50:36;18.80;;;10.18;;
42846;SDS011;28495;49.916;14.536;2023-03-01T15:56:00;17.40;;;9.52;;
42846;SDS011;28495;49.916;14.536;2023-03-01T16:01:21;22.35;;;10.73;;
42846;SDS011;28495;49.916;14.536;2023-03-01T16:06:42;18.58;;;9.68;;
42846;SDS011;28495;49.916;14.536;2023-03-01T16:12:03;16.65;;;9.48;;
42846;SDS011;28495;49.916;14.536;2023-03-01T16:17:24;15.80;;;9.00;;
42846;SDS011;28495;49.916;14.536;2023-03-01T16:22:46;21.38;;;11.02;;
42846;SDS011;28495;49.916;14.536;2023-03-01T16:28:07;21.23;;;11.52;;
42846;SDS011;28495;49.916;14.536;2023-03-01T16:33:31;21.48;;;10.95;;
42846;SDS011;28495;49.916;14.536;2023-03-01T16:38:55;19.50;;;10.45;;
42846;SDS011;28495;49.916;14.536;2023-03-01T16:44:19;23.50;;;12.35;;
42846;SDS011;28495;49.916;14.536;2023-03-01T16:49:40;15.52;;;8.98;;
42846;SDS011;28495;49.916;14.536;2023-03-01T16:55:02;22.27;;;11.35;;
42846;SDS011;28495;49.916;14.536;2023-03-01T17:00:24;20.90;;;11.20;;
42846;SDS011;28495;49.916;14.536;2023-03-01T17:05:45;19.70;;;10.18;;
42846;SDS011;28495;49.916;14.536;2023-03-01T17:11:11;18.02;;;10.20;;
42846;SDS011;28495;49.916;14.536;2023-03-01T17:21:57;16.20;;;8.30;;
42846;SDS011;28495;49.916;14.536;2023-03-01T17:27:18;19.60;;;9.35;;
42846;SDS011;28495;49.916;14.536;2023-03-01T17:32:40;13.90;;;7.72;;
42846;SDS011;28495;49.916;14.536;2023-03-01T17:38:01;19.52;;;9.50;;
42846;SDS011;28495;49.916;14.536;2023-03-01T17:43:22;18.45;;;9.55;;
42846;SDS011;28495;49.916;14.536;2023-03-01T17:48:43;17.75;;;10.40;;
42846;SDS011;28495;49.916;14.536;2023-03-01T17:54:04;17.50;;;8.93;;
42846;SDS011;28495;49.916;14.536;2023-03-01T17:59:25;16.02;;;8.75;;
42846;SDS011;28495;49.916;14.536;2023-03-01T18:04:52;16.60;;;8.27;;
42846;SDS011;28495;49.916;14.536;2023-03-01T18:10:18;16.58;;;9.20;;
42846;SDS011;28495;49.916;14.536;2023-03-01T18:15:39;16.65;;;10.18;;
42846;SDS011;28495;49.916;14.536;2023-03-01T18:21:00;17.17;;;10.07;;
42846;SDS011;28495;49.916;14.536;2023-03-01T18:26:22;14.27;;;8.15;;
42846;SDS011;28495;49.916;14.536;2023-03-01T18:31:44;19.85;;;9.93;;
42846;SDS011;28495;49.916;14.536;2023-03-01T18:37:06;20.60;;;10.20;;
42846;SDS011;28495;49.916;14.536;2023-03-01T18:42:29;17.63;;;10.60;;
42846;SDS011;28495;49.916;14.536;2023-03-01T18:47:50;23.92;;;11.70;;
42846;SDS011;28495;49.916;14.536;2023-03-01T18:53:11;35.20;;;18.23;;
42846;SDS011;28495;49.916;14.536;2023-03-01T18:58:32;28.33;;;13.93;;
42846;SDS011;28495;49.916;14.536;2023-03-01T19:03:53;35.55;;;18.85;;
42846;SDS011;28495;49.916;14.536;2023-03-01T19:09:15;30.13;;;17.58;;
42846;SDS011;28495;49.916;14.536;2023-03-01T19:14:37;37.40;;;17.63;;
42846;SDS011;28495;49.916;14.536;2023-03-01T19:19:58;23.10;;;12.70;;
42846;SDS011;28495;49.916;14.536;2023-03-01T19:25:19;21.23;;;12.20;;
42846;SDS011;28495;49.916;14.536;2023-03-01T19:30:40;21.92;;;11.98;;
42846;SDS011;28495;49.916;14.536;2023-03-01T19:36:01;25.20;;;11.82;;
42846;SDS011;28495;49.916;14.536;2023-03-01T19:41:22;22.92;;;12.57;;
42846;SDS011;28495;49.916;14.536;2023-03-01T19:46:44;27.42;;;14.18;;
42846;SDS011;28495;49.916;14.536;2023-03-01T19:52:04;35.03;;;16.95;;
42846;SDS011;28495;49.916;14.536;2023-03-01T19:57:25;36.95;;;19.40;;
42846;SDS011;28495;49.916;14.536;2023-03-01T20:02:46;29.48;;;16.50;;
42846;SDS011;28495;49.916;14.536;2023-03-01T20:08:08;29.25;;;15.13;;
42846;SDS011;28495;49.916;14.536;2023-03-01T20:13:29;30.08;;;15.70;;
42846;SDS011;28495;49.916;14.536;2023-03-01T20:18:50;33.55;;;16.48;;
42846;SDS011;28495;49.916;14.536;2023-03-01T20:24:10;28.80;;;15.70;;
42846;SDS011;28495;49.916;14.536;2023-03-01T20:29:31;27.20;;;15.73;;
42846;SDS011;28495;49.916;14.536;2023-03-01T20:34:52;35.92;;;17.13;;
42846;SDS011;28495;49.916;14.536;2023-03-01T20:40:16;29.85;;;14.68;;
42846;SDS011;28495;49.916;14.536;2023-03-01T20:45:38;30.00;;;14.88;;
42846;SDS011;28495;49.916;14.536;2023-03-01T20:50:59;37.72;;;19.40;;
42846;SDS011;28495;49.916;14.536;2023-03-01T20:56:24;90.10;;;39.25;;
42846;SDS011;28495;49.916;14.536;2023-03-01T21:01:56;44.60;;;22.80;;
42846;SDS011;28495;49.916;14.536;2023-03-01T21:07:17;56.08;;;28.00;;
42846;SDS011;28495;49.916;14.536;2023-03-01T21:12:37;44.88;;;22.65;;
42846;SDS011;28495;49.916;14.536;2023-03-01T21:17:58;32.28;;;18.45;;
42846;SDS011;28495;49.916;14.536;2023-03-01T21:23:19;31.52;;;16.67;;
42846;SDS011;28495;49.916;14.536;2023-03-01T21:28:41;78.50;;;37.47;;
42846;SDS011;28495;49.916;14.536;2023-03-01T21:34:04;133.52;;;50.03;;
42846;SDS011;28495;49.916;14.536;2023-03-01T21:39:26;42.90;;;20.52;;
42846;SDS011;28495;49.916;14.536;2023-03-01T21:44:48;38.58;;;18.45;;
42846;SDS011;28495;49.916;14.536;2023-03-01T21:50:09;37.58;;;20.98;;
42846;SDS011;28495;49.916;14.536;2023-03-01T21:55:31;42.85;;;21.35;;
42846;SDS011;28495;49.916;14.536;2023-03-01T22:00:57;29.10;;;16.38;;
42846;SDS011;28495;49.916;14.536;2023-03-01T22:06:29;60.83;;;26.05;;
42846;SDS011;28495;49.916;14.536;2023-03-01T22:11:54;42.15;;;20.80;;
42846;SDS011;28495;49.916;14.536;2023-03-01T22:17:22;33.63;;;15.13;;
42846;SDS011;28495;49.916;14.536;2023-03-01T22:22:42;28.13;;;15.25;;
42846;SDS011;28495;49.916;14.536;2023-03-01T22:28:03;27.02;;;15.60;;
42846;SDS011;28495;49.916;14.536;2023-03-01T22:33:24;28.73;;;15.38;;
42846;SDS011;28495;49.916;14.536;2023-03-01T22:38:45;28.70;;;14.82;;
42846;SDS011;28495;49.916;14.536;2023-03-01T22:44:06;29.10;;;15.52;;
42846;SDS011;28495;49.916;14.536;2023-03-01T22:49:27;34.47;;;18.73;;
42846;SDS011;28495;49.916;14.536;2023-03-01T22:54:47;27.20;;;15.25;;
42846;SDS011;28495;49.916;14.536;2023-03-01T23:00:09;32.67;;;16.55;;
42846;SDS011;28495;49.916;14.536;2023-03-01T23:05:32;29.50;;;15.13;;
42846;SDS011;28495;49.916;14.536;2023-03-01T23:10:53;31.63;;;15.98;;
42846;SDS011;28495;49.916;14.536;2023-03-01T23:16:14;30.90;;;16.13;;
42846;SDS011;28495;49.916;14.536;2023-03-01T23:21:36;36.90;;;17.63;;
42846;SDS011;28495;49.916;14.536;2023-03-01T23:27:00;39.97;;;19.58;;
42846;SDS011;28495;49.916;14.536;2023-03-01T23:32:22;37.42;;;19.88;;
42846;SDS011;28495;49.916;14.536;2023-03-01T23:37:43;33.58;;;17.65;;
42846;SDS011;28495;49.916;14.536;2023-03-01T23:43:05;37.70;;;17.38;;
42846;SDS011;28495;49.916;14.536;2023-03-01T23:48:25;32.60;;;16.27;;
42846;SDS011;28495;49.916;14.536;2023-03-01T23:53:47;33.35;;;17.23;;
42846;SDS011;28495;49.916;14.536;2023-03-01T23:59:17;27.67;;;14.07;;
